Charter Quote
Worldwide +1-877-727-2538 Call
Select Language Lang
SAFETY RELIABILITY EXPERIENCE

Private Jet Charter Services - Enshi Airport (ZHES)

Paramount Business Jets offers private jet charter flights and luxury airliner charters to and from Enshi Airport.

AIRPORT INFORMATION
ICAOZHES
IATAENH
LOCATIONEnshi, China
FACILITY TYPEAIRPORT

At Paramount Business Jets you can hire chartered private jets to and from Enshi Airport with as little as 4 hours of notice. All flights booked via Paramount Business Jets are operated by certified direct air carriers that meet and exceed the FAA part 135 and 121 protocol or a foreign equivalent safety authority. Furthermore, Paramount Business Jets subscribes to ARGUS for their third party safety checks of operators, aircraft, and crews prior each and every flight to and from Enshi Airport and worldwide.

  • Quote a trip using Enshi Airport or call us 24/7 - 365 days a year at +1-877-727-2538.
Questions? Call +1-877-727-2538

METAR Weather Data at Enshi Airport, ZHES, ENH

STATIONZHES
OBSERVEDFri Mar 22, 06:00 UTC
NOWMon Jul 22, 10:19 UTC
AGE55516:19 hr ago
WINDcalm
VISIBILITY2.6 miles
CONDITIONSlight rain & mist
CLOUDSovercast
TEMP55°F (13°C)
DEWPT55°F (13°C)
HUMIDITY100%
BAROMETER1011 hPa (29.85 in Hg)
METARZHES 220600Z 00000MPS 1600 -RA BR FEW005 OVC040 13/13 Q1011 NOSIG

Call us on +1-877-727-2538 (24 Hours) to Hire a Private Jet or Get a Quick Quote.

Find Airports Near any Location

Processing
...